^^
Station Historical Data
Daily Summary for August 20, 2017 Units:  English    Metric   Both
« Previous Day
Next Day »
Daily Weekly Monthly Yearly Custom
  High: Low: Average:
Temperature: 82.2 °F 66.5 °F 73.9 °F
Dew Point: 67.6 °F 60.3 °F 62.3 °F
Humidity: 86% 50% 68%
Wind Speed: 5.0mph 0.0mph 1mph
Wind Gust: 12.0mph - -
Wind- - SSW
Pressure: 30.16 in 29.88 in -
Precipitation: 0.00 in    
Historical Graphs
 
 
Tabular Data for August 20, 2017
Time Temperature Dew Point Pressure Wind Wind Speed Wind Gust Humidity Rainfall Rate (Hourly) Conditions
00:00 75.6 °F 67.5 °F 29.88 in Calm   4.0 mph 76% 0.00 in CLR
00:15 75.3 °F 67.6 °F 29.89 in Calm   2.0 mph 77% 0.00 in SCT
00:30 74.9 °F 67.6 °F 29.89 in Calm   1.0 mph 78% 0.00 in SCT
00:45 74.1 °F 67.5 °F 29.90 in Calm   1.0 mph 80% 0.00 in SCT
01:00 73.4 °F 67.2 °F 29.90 in SSW 1.0 mph 4.0 mph 81% 0.00 in SCT
01:15 72.8 °F 64.1 °F 29.90 in SW 1.0 mph 3.0 mph 74% 0.00 in FEW
01:30 72.6 °F 61.8 °F 29.90 in Calm   2.0 mph 69% 0.00 in FEW
01:45 72.2 °F 61.5 °F 29.90 in Calm   4.0 mph 69% 0.00 in FEW
02:00 71.7 °F 61.4 °F 29.91 in Calm   1.0 mph 70% 0.00 in FEW
02:15 71.1 °F 62.0 °F 29.91 in Calm     73% 0.00 in FEW
02:30 70.7 °F 62.0 °F 29.91 in Calm   3.0 mph 74% 0.00 in FEW
02:45 70.5 °F 62.6 °F 29.92 in Calm   1.0 mph 76% 0.00 in FEW
03:00 70.2 °F 61.9 °F 29.92 in SSE 1.0 mph 8.0 mph 75% 0.00 in FEW
03:15 69.7 °F 62.2 °F 29.92 in Calm   3.0 mph 77% 0.00 in CLR
03:30 69.2 °F 62.0 °F 29.92 in South 1.0 mph 3.0 mph 78% 0.00 in CLR
03:45 68.9 °F 61.8 °F 29.92 in Calm   5.0 mph 78% 0.00 in CLR
04:15 68.6 °F 61.5 °F 29.93 in Calm   5.0 mph 78% 0.00 in CLR
04:30 68.6 °F 61.8 °F 29.94 in Calm   2.0 mph 79% 0.00 in CLR
04:45 68.6 °F 61.8 °F 29.95 in SE 1.0 mph 7.0 mph 79% 0.00 in CLR
05:00 68.4 °F 62.0 °F 29.95 in NNE 3.0 mph 9.0 mph 80% 0.00 in CLR
05:15 68.0 °F 61.9 °F 29.96 in Calm   7.0 mph 81% 0.00 in CLR
05:30 67.9 °F 61.9 °F 29.96 in SSE 1.0 mph 5.0 mph 81% 0.00 in CLR
05:45 67.6 °F 61.9 °F 29.97 in Calm   3.0 mph 82% 0.00 in CLR
06:00 67.5 °F 61.8 °F 29.98 in Calm   5.0 mph 82% 0.00 in CLR
06:15 67.3 °F 61.6 °F 29.99 in Calm   7.0 mph 82% 0.00 in CLR
06:30 66.8 °F 61.8 °F 29.99 in SW 2.0 mph 5.0 mph 84% 0.00 in CLR
06:45 66.5 °F 61.5 °F 30.00 in East 2.0 mph 6.0 mph 84% 0.00 in CLR
07:00 66.6 °F 61.6 °F 30.00 in ESE 1.0 mph 6.0 mph 84% 0.00 in CLR
07:15 66.7 °F 61.7 °F 30.00 in NNE 2.0 mph 7.0 mph 84% 0.00 in CLR
07:30 66.8 °F 61.8 °F 30.00 in Calm   7.0 mph 84% 0.00 in CLR
07:45 67.0 °F 61.7 °F 30.02 in SSE 5.0 mph 10.0 mph 83% 0.00 in CLR
08:00 67.5 °F 61.8 °F 30.02 in NE 1.0 mph 5.0 mph 82% 0.00 in CLR
08:15 68.0 °F 62.0 °F 30.02 in Calm   6.0 mph 81% 0.00 in CLR
08:30 69.2 °F 62.0 °F 30.02 in ESE 1.0 mph 7.0 mph 78% 0.00 in CLR
08:45 70.7 °F 62.4 °F 30.02 in SW 1.0 mph 8.0 mph 75% 0.00 in CLR
09:00 71.5 °F 62.0 °F 30.02 in SSW 2.0 mph 12.0 mph 72% 0.00 in CLR
09:15 72.4 °F 62.5 °F 30.03 in WNW 3.0 mph 7.0 mph 71% 0.00 in FEW
09:30 72.6 °F 61.9 °F 30.03 in West 1.0 mph 8.0 mph 69% 0.00 in FEW
09:45 73.3 °F 61.7 °F 30.03 in NNW 5.0 mph 8.0 mph 67% 0.00 in FEW
10:00 73.9 °F 62.2 °F 30.03 in NW 1.0 mph 8.0 mph 67% 0.00 in FEW
10:15 74.0 °F 62.3 °F 30.03 in NW 2.0 mph 9.0 mph 67% 0.00 in FEW
10:30 74.3 °F 62.2 °F 30.04 in NNW 3.0 mph 7.0 mph 66% 0.00 in FEW
10:45 75.2 °F 62.6 °F 30.05 in WNW 1.0 mph 7.0 mph 65% 0.00 in FEW
11:00 75.2 °F 62.2 °F 30.05 in WSW 1.0 mph 8.0 mph 64% 0.00 in FEW
11:15 75.9 °F 62.8 °F 30.05 in East 1.0 mph 7.0 mph 64% 0.00 in FEW
11:30 76.4 °F 62.4 °F 30.05 in NNW 2.0 mph 6.0 mph 62% 0.00 in FEW
11:45 76.7 °F 63.2 °F 30.06 in WNW 1.0 mph 6.0 mph 63% 0.00 in FEW
12:00 77.0 °F 62.0 °F 30.06 in Calm   7.0 mph 60% 0.00 in FEW
12:15 77.2 °F 62.7 °F 30.06 in North 3.0 mph 9.0 mph 61% 0.00 in SCT
12:30 77.5 °F 61.6 °F 30.06 in North 3.0 mph 12.0 mph 58% 0.00 in SCT
12:45 77.5 °F 62.0 °F 30.06 in NNE 2.0 mph 10.0 mph 59% 0.00 in SCT
13:00 77.6 °F 61.7 °F 30.07 in NNE 3.0 mph 9.0 mph 58% 0.00 in SCT
13:15 78.3 °F 61.8 °F 30.07 in WNW 1.0 mph 7.0 mph 57% 0.00 in SCT
13:30 78.3 °F 61.8 °F 30.07 in NE 1.0 mph 12.0 mph 57% 0.00 in SCT
13:45 78.7 °F 62.2 °F 30.07 in NW 1.0 mph 10.0 mph 57% 0.00 in SCT
14:00 79.5 °F 61.4 °F 30.07 in WNW 2.0 mph 7.0 mph 54% 0.00 in SCT
14:15 80.0 °F 61.8 °F 30.07 in NE 2.0 mph 8.0 mph 54% 0.00 in SCT
14:30 80.1 °F 62.0 °F 30.07 in NW 1.0 mph 8.0 mph 54% 0.00 in SCT
14:45 79.7 °F 61.6 °F 30.07 in NW 3.0 mph 8.0 mph 54% 0.00 in SCT
15:00 80.0 °F 60.7 °F 30.06 in NNW 2.0 mph 7.0 mph 52% 0.00 in SCT
15:15 80.2 °F 61.0 °F 30.06 in NNE 1.0 mph 9.0 mph 52% 0.00 in SCT
15:30 80.0 °F 60.3 °F 30.06 in NNE 1.0 mph 6.0 mph 51% 0.00 in SCT
15:45 80.7 °F 60.3 °F 30.06 in NW 2.0 mph 6.0 mph 50% 0.00 in SCT
16:00 80.9 °F 60.5 °F 30.06 in NW 1.0 mph 6.0 mph 50% 0.00 in SCT
16:15 80.4 °F 60.6 °F 30.06 in NNE 2.0 mph 7.0 mph 51% 0.00 in SCT
16:30 80.3 °F 60.5 °F 30.06 in NW 1.0 mph 5.0 mph 51% 0.00 in SCT
16:45 81.2 °F 61.4 °F 30.06 in North 1.0 mph 4.0 mph 51% 0.00 in SCT
17:00 81.6 °F 61.2 °F 30.06 in Calm   4.0 mph 50% 0.00 in SCT
17:15 80.8 °F 60.9 °F 30.07 in Calm   2.0 mph 51% 0.00 in FEW
17:30 81.5 °F 61.6 °F 30.07 in WNW 1.0 mph 4.0 mph 51% 0.00 in FEW
17:45 80.5 °F 61.8 °F 30.07 in Calm   3.0 mph 53% 0.00 in FEW
18:00 82.2 °F 61.7 °F 30.07 in SSW 1.0 mph 3.0 mph 50% 0.00 in FEW
18:15 81.9 °F 63.1 °F 30.07 in SW 1.0 mph 5.0 mph 53% 0.00 in FEW
18:30 80.5 °F 62.9 °F 30.07 in SW 2.0 mph 6.0 mph 55% 0.00 in FEW
18:45 80.6 °F 63.5 °F 30.08 in SSW 1.0 mph 5.0 mph 56% 0.00 in FEW
19:00 79.6 °F 63.0 °F 30.08 in SW 1.0 mph 6.0 mph 57% 0.00 in FEW
19:15 78.4 °F 61.9 °F 30.09 in South 2.0 mph 7.0 mph 57% 0.00 in FEW
19:30 77.6 °F 61.7 °F 30.09 in SSW 1.0 mph 6.0 mph 58% 0.00 in FEW
19:45 76.9 °F 62.0 °F 30.09 in SSE 1.0 mph 4.0 mph 60% 0.00 in FEW
20:00 76.4 °F 62.4 °F 30.09 in Calm   4.0 mph 62% 0.00 in FEW
20:15 74.8 °F 62.7 °F 30.09 in Calm     66% 0.00 in FEW
20:30 73.2 °F 62.8 °F 30.10 in Calm     70% 0.00 in FEW
20:45 71.7 °F 62.9 °F 30.11 in Calm     74% 0.00 in FEW
21:00 70.9 °F 63.0 °F 30.11 in Calm     76% 0.00 in FEW
21:14 70.8 °F 63.2 °F 30.12 in Calm     77% 0.00 in
21:30 71.2 °F 62.9 °F 30.13 in Calm   1.0 mph 75% 0.00 in FEW
21:45 72.0 °F 63.3 °F 30.14 in Calm   2.0 mph 74% 0.00 in FEW
22:00 71.6 °F 63.2 °F 30.14 in Calm     75% 0.00 in FEW
22:15 70.5 °F 63.0 °F 30.14 in Calm     77% 0.00 in CLR
22:30 69.6 °F 63.1 °F 30.14 in East 1.0 mph 2.0 mph 80% 0.00 in CLR
22:45 70.0 °F 62.8 °F 30.14 in Calm   2.0 mph 78% 0.00 in CLR
23:00 69.6 °F 62.8 °F 30.15 in Calm     79% 0.00 in CLR
23:15 68.4 °F 62.7 °F 30.15 in Calm     82% 0.00 in CLR
23:30 68.1 °F 62.7 °F 30.16 in Calm     83% 0.00 in CLR
23:45 67.3 °F 63.0 °F 30.16 in Calm   1.0 mph 86% 0.00 in CLR
TarryTown NY Weather
Compliments of Weather Underground - 1.5 mb